createdAt,value
2023-05-19T00:00:50.975Z,73.33
2023-05-19T00:02:23.622Z,73.63
2023-05-19T00:03:57.724Z,74.09
2023-05-19T00:05:30.983Z,73.56
2023-05-19T00:07:02.771Z,73.52
2023-05-19T00:08:34.589Z,73.99
2023-05-19T00:10:07.601Z,74.33
2023-05-19T00:11:40.988Z,73.48
2023-05-19T00:13:13.161Z,74.47
2023-05-19T00:14:45.295Z,73.79
2023-05-19T00:16:17.126Z,74.37
2023-05-19T00:17:48.949Z,74.99
2023-05-19T00:19:22.425Z,74.32
2023-05-19T00:20:54.190Z,73.67
2023-05-19T00:22:25.972Z,73.86
2023-05-19T00:23:57.823Z,74.34
2023-05-19T00:25:29.564Z,74.69
2023-05-19T00:27:02.627Z,75.05
2023-05-19T00:28:34.289Z,75.42
2023-05-19T00:30:07.573Z,74.30
2023-05-19T00:31:39.274Z,75.15
2023-05-19T00:33:11.089Z,75.18
2023-05-19T00:34:43.024Z,74.82
2023-05-19T00:36:14.833Z,74.75
2023-05-19T00:37:46.709Z,75.17
2023-05-19T00:39:18.349Z,75.81
2023-05-19T00:40:50.077Z,75.81
2023-05-19T00:42:23.069Z,75.51
2023-05-19T00:43:54.748Z,75.25
2023-05-19T00:45:26.405Z,74.50
2023-05-19T00:46:58.174Z,75.35
2023-05-19T00:48:29.970Z,75.99
2023-05-19T00:50:01.648Z,75.70
2023-05-19T00:51:33.393Z,74.64
2023-05-19T00:53:05.108Z,75.05
2023-05-19T00:54:37.126Z,76.15
2023-05-19T00:56:08.895Z,75.88
2023-05-19T00:57:42.042Z,76.04
2023-05-19T00:59:13.683Z,76.68
2023-05-19T01:00:45.841Z,75.75
2023-05-19T01:02:18.147Z,76.07
2023-05-19T01:03:50.068Z,76.11
2023-05-19T01:05:21.963Z,76.08
2023-05-19T01:06:54.986Z,76.06
2023-05-19T01:08:26.735Z,75.92
2023-05-19T01:09:58.490Z,76.53
2023-05-19T01:11:30.240Z,76.03
2023-05-19T01:13:04.460Z,76.40
2023-05-19T01:14:36.123Z,76.83
2023-05-19T01:16:10.226Z,76.52
2023-05-19T01:17:45.562Z,76.81
2023-05-19T01:19:27.997Z,77.01
2023-05-19T01:21:07.864Z,76.90
2023-05-19T01:22:47.420Z,76.17
2023-05-19T01:24:39.853Z,76.44
2023-05-19T01:26:22.226Z,76.44
2023-05-19T01:28:18.900Z,77.27
2023-05-19T01:30:18.011Z,76.75
2023-05-19T01:31:50.532Z,76.64
2023-05-19T01:33:23.058Z,76.69
2023-05-19T01:34:54.819Z,76.09
2023-05-19T01:36:26.753Z,78.16
2023-05-19T01:37:59.136Z,76.92
2023-05-19T01:39:31.004Z,77.65
2023-05-19T01:41:03.964Z,77.49
2023-05-19T01:42:37.955Z,77.20
2023-05-19T01:44:10.052Z,77.65
2023-05-19T01:45:43.322Z,77.51
2023-05-19T01:47:15.009Z,76.22
2023-05-19T01:48:46.676Z,76.75
2023-05-19T01:50:18.448Z,77.09
2023-05-19T01:51:50.346Z,77.68
2023-05-19T01:53:22.036Z,77.55
2023-05-19T01:54:53.789Z,77.17
2023-05-19T01:56:29.981Z,77.16
2023-05-19T01:58:06.900Z,77.63
2023-05-19T01:59:43.461Z,78.63
2023-05-19T02:01:22.044Z,77.82
2023-05-19T02:02:57.215Z,78.27
2023-05-19T02:04:33.328Z,78.07
2023-05-19T02:06:11.856Z,78.15
2023-05-19T02:07:44.904Z,77.54
2023-05-19T02:09:20.172Z,77.89
2023-05-19T02:10:53.373Z,78.28
2023-05-19T02:12:28.059Z,78.54
2023-05-19T02:14:01.343Z,77.83
2023-05-19T02:15:35.488Z,78.05
2023-05-19T02:17:08.583Z,78.43
2023-05-19T02:18:40.635Z,77.41
2023-05-19T02:20:12.400Z,77.67
2023-05-19T02:21:44.335Z,77.61
2023-05-19T02:23:16.070Z,77.82
2023-05-19T02:24:51.823Z,78.12
2023-05-19T02:26:23.923Z,78.30
2023-05-19T02:27:55.967Z,77.87
2023-05-19T02:29:27.661Z,77.56
2023-05-19T02:30:59.412Z,78.32
2023-05-19T02:32:32.547Z,77.52
2023-05-19T02:34:04.295Z,77.74
2023-05-19T02:35:35.956Z,78.57
2023-05-19T02:37:07.736Z,78.63
2023-05-19T02:38:39.511Z,77.59
2023-05-19T02:40:11.436Z,77.57
2023-05-19T02:41:43.217Z,76.88
2023-05-19T02:43:14.898Z,76.98
2023-05-19T02:44:46.564Z,77.49
2023-05-19T02:46:18.298Z,77.81
2023-05-19T02:47:51.405Z,77.97
2023-05-19T02:49:23.085Z,78.20
2023-05-19T02:50:54.796Z,78.33
2023-05-19T02:52:26.630Z,77.79
2023-05-19T02:53:58.424Z,78.22
2023-05-19T02:55:30.176Z,77.94
2023-05-19T02:57:01.889Z,77.43
2023-05-19T02:58:33.599Z,77.74
2023-05-19T03:00:06.878Z,77.75
2023-05-19T03:01:40.483Z,77.77
2023-05-19T03:03:14.992Z,77.80
2023-05-19T03:04:46.874Z,78.02
2023-05-19T03:06:18.636Z,77.85
2023-05-19T03:07:50.447Z,77.72
2023-05-19T03:09:25.376Z,78.06
2023-05-19T03:10:59.718Z,77.56
2023-05-19T03:12:32.525Z,77.44
2023-05-19T03:14:04.520Z,77.14
2023-05-19T03:15:39.278Z,76.62
2023-05-19T03:17:11.043Z,77.01
2023-05-19T03:18:44.136Z,77.30
2023-05-19T03:20:18.320Z,77.21
2023-05-19T03:21:50.215Z,77.34
2023-05-19T03:23:24.912Z,77.70
2023-05-19T03:24:58.494Z,77.76
2023-05-19T03:26:30.404Z,78.82
2023-05-19T03:28:02.086Z,77.92
2023-05-19T03:29:33.760Z,78.38
2023-05-19T03:31:08.338Z,77.83
2023-05-19T03:32:40.172Z,78.15
2023-05-19T03:34:15.114Z,77.62
2023-05-19T03:35:46.849Z,77.96
2023-05-19T03:37:21.559Z,77.31
2023-05-19T03:38:53.227Z,77.77
2023-05-19T03:40:24.925Z,77.93
2023-05-19T03:41:56.629Z,77.17
2023-05-19T03:43:28.309Z,78.24
2023-05-19T03:45:00.029Z,78.30
2023-05-19T03:46:34.714Z,77.44
2023-05-19T03:48:09.214Z,77.92
2023-05-19T03:49:42.254Z,79.06
2023-05-19T03:51:16.675Z,77.71
2023-05-19T03:52:48.927Z,77.51
2023-05-19T03:54:23.868Z,77.84
2023-05-19T03:55:56.724Z,77.94
2023-05-19T03:57:29.925Z,78.58
2023-05-19T03:59:01.546Z,78.25
2023-05-19T04:00:33.762Z,78.61
2023-05-19T04:02:08.908Z,77.51
2023-05-19T04:03:40.776Z,77.53
2023-05-19T04:05:14.149Z,78.99
2023-05-19T04:06:48.684Z,78.72
2023-05-19T04:08:20.475Z,78.67
2023-05-19T04:09:52.192Z,78.31
2023-05-19T04:11:23.834Z,78.04
2023-05-19T04:12:55.457Z,78.09
2023-05-19T04:14:27.113Z,77.84
2023-05-19T04:15:58.837Z,78.25
2023-05-19T04:17:30.636Z,78.79
2023-05-19T04:19:05.960Z,78.32
2023-05-19T04:20:39.103Z,78.46
2023-05-19T04:22:10.823Z,78.52
2023-05-19T04:23:42.479Z,78.49
2023-05-19T04:25:14.376Z,78.48
2023-05-19T04:26:47.179Z,78.71
2023-05-19T04:28:18.935Z,79.11
2023-05-19T04:29:50.858Z,78.13
2023-05-19T04:31:22.822Z,78.69
2023-05-19T04:32:54.604Z,78.73
2023-05-19T04:34:31.364Z,78.83
2023-05-19T04:36:08.400Z,78.29
2023-05-19T04:37:40.586Z,79.08
2023-05-19T04:39:12.422Z,78.60
2023-05-19T04:40:46.086Z,78.38
2023-05-19T04:42:19.473Z,78.48
2023-05-19T04:43:54.569Z,78.78
2023-05-19T04:45:26.283Z,79.56
2023-05-19T04:46:58.962Z,78.06
2023-05-19T04:48:31.031Z,78.44
2023-05-19T04:50:02.711Z,79.33
2023-05-19T04:51:38.458Z,78.79
2023-05-19T04:53:10.189Z,78.88
2023-05-19T04:54:44.271Z,78.50
2023-05-19T04:56:18.456Z,79.23
2023-05-19T04:57:50.724Z,78.55
2023-05-19T04:59:23.167Z,78.75
2023-05-19T05:01:00.780Z,78.97
2023-05-19T05:02:35.419Z,79.32
2023-05-19T05:04:07.218Z,78.71
2023-05-19T05:05:41.818Z,78.38
2023-05-19T05:07:14.880Z,78.50
2023-05-19T05:08:46.526Z,79.26
2023-05-19T05:10:18.240Z,79.24
2023-05-19T05:11:52.148Z,78.50
2023-05-19T05:13:24.438Z,79.36
2023-05-19T05:14:59.996Z,78.90
2023-05-19T05:16:35.262Z,79.32
2023-05-19T05:18:11.225Z,78.93
2023-05-19T05:19:43.634Z,79.00
2023-05-19T05:21:19.152Z,78.70
2023-05-19T05:22:55.891Z,79.11
2023-05-19T05:24:28.153Z,78.51
2023-05-19T05:26:00.501Z,78.95
2023-05-19T05:27:32.780Z,78.09
2023-05-19T05:29:04.539Z,78.33
2023-05-19T05:30:36.511Z,78.71
2023-05-19T05:32:08.407Z,79.55
2023-05-19T05:35:31.182Z,79.34
2023-05-19T05:37:02.869Z,78.84
2023-05-19T05:38:37.381Z,78.69
2023-05-19T05:40:29.613Z,79.05
2023-05-19T05:42:40.008Z,78.75
2023-05-19T05:44:11.803Z,78.65
2023-05-19T05:45:46.620Z,79.34
2023-05-19T05:47:18.988Z,79.06
2023-05-19T05:48:51.460Z,79.47
2023-05-19T05:50:25.803Z,78.80
2023-05-19T05:52:05.914Z,78.82
2023-05-19T05:53:41.984Z,79.27
2023-05-19T05:55:17.894Z,78.42
2023-05-19T05:56:50.426Z,78.67
2023-05-19T05:58:22.204Z,78.59
2023-05-19T05:59:57.041Z,80.64
2023-05-19T06:01:39.935Z,79.85
2023-05-19T06:03:18.857Z,79.63
2023-05-19T06:04:50.938Z,79.12
2023-05-19T06:06:30.277Z,78.79
2023-05-19T06:08:02.178Z,78.75
2023-05-19T06:09:39.154Z,79.39
2023-05-19T06:11:13.350Z,79.78
2023-05-19T06:12:45.586Z,78.92
2023-05-19T06:14:20.752Z,79.57
2023-05-19T06:15:54.860Z,79.71
2023-05-19T06:17:27.848Z,79.13
2023-05-19T06:19:01.632Z,79.47
2023-05-19T06:20:50.443Z,78.93
2023-05-19T06:22:22.401Z,79.62
2023-05-19T06:23:57.009Z,80.08
2023-05-19T06:25:32.911Z,78.92
2023-05-19T06:27:07.356Z,78.54
2023-05-19T06:28:42.335Z,77.99
2023-05-19T06:30:28.984Z,78.89
2023-05-19T06:32:01.106Z,78.40
2023-05-19T06:33:32.966Z,78.57
2023-05-19T06:35:06.351Z,78.36
2023-05-19T06:36:38.149Z,78.43
2023-05-19T06:38:10.074Z,78.29
2023-05-19T06:39:43.698Z,78.76
2023-05-19T06:41:17.098Z,78.99
2023-05-19T06:42:49.013Z,78.00
2023-05-19T06:44:22.718Z,78.73
2023-05-19T06:45:54.550Z,78.57
2023-05-19T06:47:26.492Z,78.17
2023-05-19T06:48:58.538Z,78.52
2023-05-19T06:50:30.625Z,77.68
2023-05-19T06:52:02.504Z,78.40
2023-05-19T06:53:37.144Z,77.55
2023-05-19T06:55:09.274Z,77.67
2023-05-19T06:56:42.575Z,77.74
2023-05-19T06:58:19.811Z,78.29
2023-05-19T06:59:51.670Z,77.84
2023-05-19T07:01:31.309Z,78.42
2023-05-19T07:03:05.982Z,78.33
2023-05-19T07:04:38.013Z,77.30
2023-05-19T07:06:10.182Z,77.48
2023-05-19T07:07:42.095Z,77.20
2023-05-19T07:09:16.867Z,76.72
2023-05-19T07:10:49.893Z,77.67
2023-05-19T07:12:26.682Z,77.48
2023-05-19T07:14:02.645Z,77.70
2023-05-19T07:15:36.574Z,77.66
2023-05-19T07:17:09.822Z,77.48
2023-05-19T07:18:44.409Z,77.51
2023-05-19T07:20:19.245Z,77.35
2023-05-19T07:21:51.228Z,77.11
2023-05-19T07:23:29.080Z,76.62
2023-05-19T07:25:04.015Z,75.75
2023-05-19T07:26:36.296Z,76.86
2023-05-19T07:28:14.152Z,78.44
2023-05-19T07:29:46.186Z,76.80
2023-05-19T07:31:18.083Z,77.34
2023-05-19T07:32:50.248Z,76.41
2023-05-19T07:34:24.344Z,76.80
2023-05-19T07:35:59.309Z,76.20
2023-05-19T07:37:34.269Z,76.52
2023-05-19T07:39:29.899Z,76.34
2023-05-19T07:41:01.891Z,76.69
2023-05-19T07:42:33.980Z,76.24
2023-05-19T07:44:07.991Z,75.84
2023-05-19T07:45:40.159Z,76.13
2023-05-19T07:47:12.008Z,76.41
2023-05-19T07:48:43.775Z,75.32
2023-05-19T07:50:21.250Z,75.66
2023-05-19T07:51:53.145Z,75.32
2023-05-19T07:53:28.033Z,75.39
2023-05-19T07:54:59.944Z,75.58
2023-05-19T07:56:38.687Z,75.47
2023-05-19T07:58:10.692Z,75.54
2023-05-19T07:59:43.819Z,74.82
2023-05-19T08:01:20.609Z,74.62
2023-05-19T08:02:53.386Z,75.55
2023-05-19T08:04:25.385Z,75.53
2023-05-19T08:05:57.247Z,74.67
2023-05-19T08:07:29.039Z,73.98
2023-05-19T08:09:03.469Z,74.67
2023-05-19T08:10:35.730Z,73.30
2023-05-19T08:12:10.863Z,74.38
2023-05-19T08:13:42.773Z,74.66
2023-05-19T08:15:16.620Z,75.25
2023-05-19T08:16:48.508Z,75.04
2023-05-19T08:18:20.734Z,75.13
2023-05-19T08:19:53.548Z,75.16
2023-05-19T08:21:25.534Z,75.51
2023-05-19T08:23:00.495Z,75.76
2023-05-19T08:24:34.025Z,74.89
2023-05-19T08:26:08.733Z,75.52
2023-05-19T08:27:40.639Z,75.16
2023-05-19T08:29:15.326Z,75.43
2023-05-19T08:30:50.581Z,76.52
2023-05-19T08:32:22.519Z,75.62
2023-05-19T08:33:54.648Z,76.17
2023-05-19T08:35:43.582Z,75.86
2023-05-19T08:37:33.990Z,75.30
2023-05-19T08:39:06.670Z,74.54
2023-05-19T08:40:50.450Z,73.78
2023-05-19T08:42:22.382Z,74.49
2023-05-19T08:43:54.273Z,74.66
2023-05-19T08:45:26.315Z,73.76
2023-05-19T08:47:01.214Z,73.26
2023-05-19T08:48:36.276Z,74.82
2023-05-19T08:50:10.834Z,74.90
2023-05-19T08:51:48.064Z,74.34
2023-05-19T08:53:33.026Z,74.39
2023-05-19T08:55:11.109Z,73.41
2023-05-19T08:56:43.774Z,73.61
2023-05-19T08:58:16.405Z,73.92
2023-05-19T08:59:49.251Z,73.24
2023-05-19T09:01:24.225Z,69.50
2023-05-19T09:03:05.973Z,72.57
2023-05-19T09:04:46.198Z,70.47
2023-05-19T09:06:18.297Z,72.55
2023-05-19T09:07:50.217Z,72.98
2023-05-19T09:09:22.295Z,72.74
2023-05-19T09:10:56.695Z,72.40
2023-05-19T09:12:30.320Z,72.36
2023-05-19T09:14:09.530Z,73.05
2023-05-19T09:15:41.564Z,71.62
2023-05-19T09:17:13.510Z,71.22
2023-05-19T09:19:04.507Z,71.25
2023-05-19T09:20:41.508Z,72.32
2023-05-19T09:22:36.495Z,73.13
2023-05-19T09:24:20.317Z,72.65
2023-05-19T09:25:53.243Z,72.34
2023-05-19T09:27:26.978Z,69.80
2023-05-19T09:29:11.992Z,72.14
2023-05-19T09:30:52.677Z,71.52
2023-05-19T09:34:32.482Z,71.06
2023-05-19T09:36:43.324Z,71.46
2023-05-19T09:38:41.211Z,75.62
2023-05-19T09:40:23.894Z,73.52
2023-05-19T09:42:07.722Z,72.31
2023-05-19T09:43:41.746Z,71.21
2023-05-19T09:45:34.613Z,71.92
2023-05-19T09:47:29.250Z,69.78
2023-05-19T09:49:03.726Z,71.22
2023-05-19T09:50:45.643Z,70.19
2023-05-19T09:52:27.218Z,70.43
2023-05-19T09:56:02.123Z,68.52
2023-05-19T09:57:36.204Z,70.33
2023-05-19T09:59:21.929Z,70.04
2023-05-19T10:00:59.448Z,68.13
2023-05-19T10:02:53.521Z,67.59
2023-05-19T10:04:33.238Z,66.94
2023-05-19T10:06:21.570Z,69.74
2023-05-19T10:07:57.120Z,66.02
2023-05-19T10:09:36.446Z,63.70
2023-05-19T10:11:10.498Z,65.52
2023-05-19T10:12:52.294Z,65.71
2023-05-19T10:14:30.680Z,65.78
2023-05-19T10:16:04.717Z,63.28
2023-05-19T10:17:47.687Z,63.50
2023-05-19T10:19:41.408Z,62.76
2023-05-19T10:21:16.929Z,62.36
2023-05-19T10:22:51.184Z,64.93
2023-05-19T10:24:25.266Z,66.04
2023-05-19T10:26:01.212Z,64.08
2023-05-19T10:27:34.292Z,64.13
2023-05-19T10:30:59.458Z,63.13
2023-05-19T10:33:18.841Z,63.65
2023-05-19T10:34:36.848Z,62.45
2023-05-19T10:36:27.705Z,59.78
2023-05-19T10:38:06.916Z,64.28
2023-05-19T10:39:44.368Z,62.34
2023-05-19T10:41:19.982Z,61.35
2023-05-19T10:43:00.910Z,61.57
2023-05-19T10:44:40.918Z,62.67
2023-05-19T10:46:12.754Z,63.08
2023-05-19T10:47:59.626Z,63.38
2023-05-19T10:49:41.854Z,65.44
2023-05-19T10:51:20.160Z,65.60
2023-05-19T10:52:58.095Z,63.03
2023-05-19T10:54:50.488Z,66.25
2023-05-19T10:56:30.182Z,62.96
2023-05-19T10:58:02.050Z,63.50
2023-05-19T10:59:38.747Z,62.68
2023-05-19T11:01:13.565Z,63.57
2023-05-19T11:02:47.619Z,63.80
2023-05-19T11:04:20.117Z,63.22
2023-05-19T11:05:52.414Z,64.11
2023-05-19T11:07:29.622Z,63.95
2023-05-19T11:09:05.823Z,63.66
2023-05-19T11:10:37.586Z,65.31
2023-05-19T11:12:10.974Z,64.28
2023-05-19T11:13:43.687Z,63.24
2023-05-19T11:15:24.229Z,64.10
2023-05-19T11:17:00.319Z,64.03
2023-05-19T11:18:50.740Z,65.07
2023-05-19T11:20:25.155Z,65.46
2023-05-19T11:22:17.871Z,66.85
2023-05-19T11:24:02.860Z,66.15
2023-05-19T11:25:45.259Z,64.83
2023-05-19T11:27:40.294Z,62.90
2023-05-19T11:29:12.401Z,66.66
2023-05-19T11:30:54.844Z,65.50
2023-05-19T11:32:28.078Z,66.70
2023-05-19T11:34:10.594Z,66.60
2023-05-19T11:35:44.551Z,67.75
2023-05-19T11:37:27.879Z,67.02
2023-05-19T11:39:04.433Z,67.42
2023-05-19T11:40:41.378Z,67.93
2023-05-19T11:42:13.709Z,67.07
2023-05-19T11:43:51.013Z,66.41
2023-05-19T11:45:28.952Z,67.00
2023-05-19T11:48:01.343Z,66.88
2023-05-19T11:49:43.837Z,67.16
2023-05-19T11:51:16.561Z,67.12
2023-05-19T11:53:00.457Z,67.52
2023-05-19T11:54:39.898Z,65.86
2023-05-19T11:56:15.336Z,66.07
2023-05-19T11:58:04.951Z,67.45
2023-05-19T12:00:09.418Z,67.00
2023-05-19T12:01:51.201Z,66.74
2023-05-19T12:03:30.151Z,65.90
2023-05-19T12:05:08.749Z,68.69
2023-05-19T12:06:53.778Z,67.21
2023-05-19T12:08:32.192Z,66.20
2023-05-19T12:10:16.035Z,66.76
2023-05-19T12:11:52.529Z,67.28
2023-05-19T12:13:24.728Z,66.75
2023-05-19T12:14:57.149Z,66.52
2023-05-19T12:16:37.989Z,68.05
2023-05-19T12:18:12.302Z,66.88
2023-05-19T12:19:50.160Z,67.68
2023-05-19T12:21:25.188Z,66.48
2023-05-19T12:23:09.744Z,67.76
2023-05-19T12:24:42.945Z,66.85
2023-05-19T12:26:16.965Z,65.24
2023-05-19T12:27:52.694Z,66.34
2023-05-19T12:29:28.916Z,66.67
2023-05-19T12:31:00.819Z,67.07
2023-05-19T12:33:12.992Z,67.01
2023-05-19T12:34:51.231Z,66.82
2023-05-19T12:36:24.199Z,66.33
2023-05-19T12:37:58.383Z,67.15
2023-05-19T12:39:30.314Z,67.30
2023-05-19T12:41:10.294Z,67.36
2023-05-19T12:43:20.309Z,66.19
2023-05-19T12:45:03.127Z,65.64
2023-05-19T12:49:00.839Z,66.06
2023-05-19T12:50:42.306Z,68.49
2023-05-19T12:52:14.148Z,67.10
2023-05-19T12:53:49.210Z,66.67
2023-05-19T12:55:52.272Z,65.80
2023-05-19T12:58:28.438Z,65.87
2023-05-19T13:00:24.514Z,66.50
2023-05-19T13:02:11.419Z,66.00
2023-05-19T13:03:48.935Z,66.61
2023-05-19T13:05:21.332Z,66.49
2023-05-19T13:07:02.926Z,66.75
2023-05-19T13:11:06.532Z,66.91
2023-05-19T13:12:49.695Z,66.79
2023-05-19T13:14:32.739Z,64.75
2023-05-19T13:16:25.511Z,67.59
2023-05-19T13:18:19.713Z,67.87
2023-05-19T13:20:07.575Z,66.84
2023-05-19T13:22:03.534Z,65.98
2023-05-19T13:23:40.489Z,67.31
2023-05-19T13:25:23.838Z,68.04
2023-05-19T13:27:01.332Z,66.39
2023-05-19T13:28:51.234Z,66.90
2023-05-19T13:30:42.285Z,68.07
2023-05-19T13:32:30.784Z,67.34
2023-05-19T13:34:05.463Z,67.66
2023-05-19T13:36:09.664Z,66.06
2023-05-19T13:37:54.592Z,67.14
2023-05-19T13:39:37.627Z,67.08
2023-05-19T13:41:25.490Z,67.54
2023-05-19T13:43:53.375Z,67.71
2023-05-19T13:47:39.084Z,67.49
2023-05-19T13:51:08.288Z,67.58
2023-05-19T13:52:40.933Z,67.26
2023-05-19T13:54:37.032Z,67.78
2023-05-19T13:56:11.829Z,68.54
2023-05-19T13:58:11.101Z,67.89
2023-05-19T14:00:00.249Z,67.35
2023-05-19T14:01:58.567Z,69.48
2023-05-19T14:03:33.552Z,67.25
2023-05-19T14:07:04.790Z,67.62
2023-05-19T14:08:39.435Z,65.83
2023-05-19T14:10:15.088Z,67.96
2023-05-19T14:11:47.349Z,68.15
2023-05-19T14:13:33.817Z,67.89
2023-05-19T14:15:10.549Z,68.30
2023-05-19T14:16:49.046Z,67.65
2023-05-19T14:18:22.594Z,66.96
2023-05-19T14:20:04.169Z,67.97
2023-05-19T14:21:36.969Z,68.10
2023-05-19T14:23:11.444Z,67.18
2023-05-19T14:24:59.068Z,65.38
2023-05-19T14:26:38.370Z,67.18
2023-05-19T14:28:11.066Z,67.02
2023-05-19T14:29:46.069Z,66.76
2023-05-19T14:31:30.320Z,67.08
2023-05-19T14:33:03.954Z,66.86
2023-05-19T14:34:39.042Z,67.86
2023-05-19T14:36:17.083Z,66.91
2023-05-19T14:37:49.103Z,66.36
2023-05-19T14:39:24.296Z,66.23
2023-05-19T14:40:58.295Z,66.19
2023-05-19T14:42:30.111Z,67.92
2023-05-19T14:44:11.807Z,66.92
2023-05-19T14:45:44.274Z,67.54
2023-05-19T14:47:17.430Z,67.69
2023-05-19T14:48:57.271Z,67.58
2023-05-19T14:50:29.498Z,68.07
2023-05-19T14:52:01.510Z,68.10
2023-05-19T14:53:33.384Z,67.67
2023-05-19T14:55:10.913Z,67.08
2023-05-19T14:56:42.982Z,68.00
2023-05-19T14:58:28.868Z,68.27
2023-05-19T15:00:10.500Z,67.23
2023-05-19T15:01:56.845Z,68.73
2023-05-19T15:03:37.760Z,67.19
2023-05-19T15:05:28.189Z,67.31
2023-05-19T15:08:37.821Z,68.20
2023-05-19T15:10:09.798Z,67.71
2023-05-19T15:11:44.770Z,66.29
2023-05-19T15:13:34.833Z,66.95
2023-05-19T15:15:08.122Z,68.79
2023-05-19T15:16:52.608Z,67.54
2023-05-19T15:18:30.452Z,68.24
2023-05-19T15:20:03.558Z,68.32
2023-05-19T15:21:44.736Z,67.98
2023-05-19T15:23:20.994Z,69.04
2023-05-19T15:25:04.191Z,68.00
2023-05-19T15:26:37.970Z,68.77
2023-05-19T15:28:14.054Z,68.49
2023-05-19T15:29:49.526Z,69.68
2023-05-19T15:31:31.491Z,68.42
2023-05-19T15:33:10.093Z,68.41
2023-05-19T15:34:42.436Z,68.02
2023-05-19T15:36:16.972Z,67.92
2023-05-19T15:37:56.331Z,69.10
2023-05-19T15:39:33.781Z,68.66
2023-05-19T15:41:07.213Z,68.49
2023-05-19T15:45:19.537Z,67.62
2023-05-19T15:46:51.844Z,68.85
2023-05-19T15:48:30.408Z,68.19
2023-05-19T15:50:02.297Z,68.01
2023-05-19T15:51:35.149Z,67.59
2023-05-19T15:55:49.043Z,68.64
2023-05-19T15:57:23.844Z,68.85
2023-05-19T15:59:26.223Z,68.82
2023-05-19T16:01:03.251Z,68.97
2023-05-19T16:02:41.136Z,68.94
2023-05-19T16:04:23.173Z,69.73
2023-05-19T16:06:09.122Z,69.64
2023-05-19T16:07:46.214Z,68.78
2023-05-19T16:09:23.864Z,69.21
2023-05-19T16:11:02.147Z,68.75
2023-05-19T16:13:05.129Z,69.58
2023-05-19T16:14:43.560Z,69.62
2023-05-19T16:16:28.032Z,69.88
2023-05-19T16:18:00.077Z,68.72
2023-05-19T16:19:59.202Z,69.63
2023-05-19T16:21:42.588Z,69.28
2023-05-19T16:23:21.061Z,68.91
2023-05-19T16:25:10.251Z,71.15
2023-05-19T16:27:03.875Z,69.67
2023-05-19T16:28:44.144Z,69.78
2023-05-19T16:30:31.318Z,70.77
2023-05-19T16:32:03.640Z,69.91
2023-05-19T16:36:13.383Z,70.04
2023-05-19T16:38:15.955Z,70.04
2023-05-19T16:39:52.288Z,70.76
2023-05-19T16:41:28.329Z,70.07
2023-05-19T16:43:19.728Z,70.80
2023-05-19T16:45:03.510Z,70.39
2023-05-19T16:48:34.396Z,69.61
2023-05-19T16:50:19.603Z,70.14
2023-05-19T16:52:03.458Z,70.39
2023-05-19T16:53:47.106Z,70.72
2023-05-19T16:55:22.827Z,70.84
2023-05-19T16:57:15.511Z,70.83
2023-05-19T16:58:53.777Z,71.72
2023-05-19T17:00:38.446Z,70.25
2023-05-19T17:02:13.609Z,70.63
2023-05-19T17:03:50.604Z,70.80
2023-05-19T17:05:30.395Z,70.40
2023-05-19T17:07:32.030Z,70.05
2023-05-19T17:09:28.886Z,69.70
2023-05-19T17:11:13.024Z,71.15
2023-05-19T17:12:54.990Z,70.17
2023-05-19T17:14:42.872Z,70.32
2023-05-19T17:16:18.900Z,70.43
2023-05-19T17:18:13.955Z,70.80
2023-05-19T17:20:07.664Z,70.08
2023-05-19T17:21:42.432Z,70.70
2023-05-19T17:23:25.850Z,69.90
2023-05-19T17:24:59.438Z,70.65
2023-05-19T17:26:32.227Z,70.09
2023-05-19T17:28:25.734Z,70.63
2023-05-19T17:30:04.030Z,71.17
2023-05-19T17:31:43.029Z,70.78
2023-05-19T17:33:19.510Z,71.15
2023-05-19T17:34:57.866Z,70.53
2023-05-19T17:36:30.385Z,70.65
2023-05-19T17:38:08.130Z,70.32
2023-05-19T17:39:41.798Z,71.14
2023-05-19T17:41:18.930Z,71.38
2023-05-19T17:42:52.974Z,70.30
2023-05-19T17:44:29.813Z,71.45
2023-05-19T17:46:06.958Z,70.77
2023-05-19T17:47:49.894Z,71.48
2023-05-19T17:49:23.193Z,71.13
2023-05-19T17:51:03.852Z,71.35
2023-05-19T17:52:38.171Z,70.80
2023-05-19T17:54:17.190Z,70.61
2023-05-19T17:55:56.122Z,70.60
2023-05-19T17:57:34.328Z,70.53
2023-05-19T18:01:01.209Z,70.80
2023-05-19T18:02:35.193Z,71.18
2023-05-19T18:04:20.319Z,70.91
2023-05-19T18:05:54.758Z,71.71
2023-05-19T18:07:41.761Z,70.63
2023-05-19T18:09:32.682Z,71.69
2023-05-19T18:11:08.126Z,71.44
2023-05-19T18:13:04.084Z,72.32
2023-05-19T18:16:52.522Z,70.80
2023-05-19T18:18:59.853Z,70.93
2023-05-19T18:23:34.270Z,71.30
2023-05-19T18:25:28.868Z,71.46
2023-05-19T18:27:03.489Z,71.47
2023-05-19T18:30:43.854Z,71.68
2023-05-19T18:32:31.835Z,71.57
2023-05-19T18:34:09.797Z,71.72
2023-05-19T18:38:05.414Z,71.13
2023-05-19T18:39:39.812Z,71.67
2023-05-19T18:41:16.969Z,71.67
2023-05-19T18:43:01.190Z,72.28
2023-05-19T18:44:50.142Z,72.71
2023-05-19T18:46:31.075Z,72.34
2023-05-19T18:48:15.673Z,71.74
2023-05-19T18:49:54.553Z,72.16
2023-05-19T18:51:28.012Z,72.11
2023-05-19T18:53:00.164Z,72.41
2023-05-19T18:54:51.193Z,72.37
2023-05-19T18:56:40.328Z,72.60
2023-05-19T18:58:12.408Z,72.37
2023-05-19T18:59:54.459Z,72.81
2023-05-19T19:01:26.737Z,72.72
2023-05-19T19:03:02.750Z,73.04
2023-05-19T19:04:51.635Z,72.40
2023-05-19T19:06:53.120Z,72.52
2023-05-19T19:08:28.161Z,72.59
2023-05-19T19:10:08.481Z,72.54
2023-05-19T19:11:50.273Z,72.14
2023-05-19T19:13:28.327Z,73.71
2023-05-19T19:15:01.287Z,73.64
2023-05-19T19:16:42.374Z,72.91
2023-05-19T19:18:33.827Z,73.39
2023-05-19T19:20:11.494Z,73.15
2023-05-19T19:21:43.292Z,72.71
2023-05-19T19:23:14.951Z,73.31
2023-05-19T19:24:46.812Z,73.03
2023-05-19T19:26:18.412Z,72.69
2023-05-19T19:27:50.096Z,73.25
2023-05-19T19:29:21.962Z,73.04
2023-05-19T19:30:53.835Z,73.39
2023-05-19T19:32:25.698Z,73.49
2023-05-19T19:34:03.659Z,73.48
2023-05-19T19:35:36.910Z,73.63
2023-05-19T19:37:08.534Z,73.91
2023-05-19T19:38:40.230Z,74.36
2023-05-19T19:40:12.743Z,73.66
2023-05-19T19:41:44.394Z,74.23
2023-05-19T19:43:16.027Z,73.49
2023-05-19T19:44:47.688Z,74.05
2023-05-19T19:46:19.350Z,73.68
2023-05-19T19:47:51.733Z,73.32
2023-05-19T19:49:23.473Z,74.31
2023-05-19T19:50:56.681Z,74.45
2023-05-19T19:52:28.304Z,73.46
2023-05-19T19:53:59.922Z,74.08
2023-05-19T19:55:31.738Z,74.58
2023-05-19T19:57:03.813Z,74.29
2023-05-19T19:58:35.478Z,74.25
2023-05-19T20:00:08.893Z,74.19
2023-05-19T20:01:40.633Z,74.10
2023-05-19T20:03:12.387Z,74.06
2023-05-19T20:04:44.090Z,74.02
2023-05-19T20:06:17.168Z,74.32
2023-05-19T20:07:48.873Z,74.55
2023-05-19T20:09:23.433Z,74.79
2023-05-19T20:10:55.129Z,74.42
2023-05-19T20:12:26.879Z,75.11
2023-05-19T20:13:58.526Z,74.91
2023-05-19T20:15:30.509Z,73.87
2023-05-19T20:17:03.395Z,74.35
2023-05-19T20:18:35.045Z,74.71
2023-05-19T20:20:12.212Z,74.24
2023-05-19T20:21:45.283Z,74.32
2023-05-19T20:23:17.045Z,74.70
2023-05-19T20:24:48.714Z,74.65
2023-05-19T20:26:20.593Z,74.76
2023-05-19T20:27:52.210Z,75.18
2023-05-19T20:29:23.940Z,75.27
2023-05-19T20:30:55.561Z,75.04
2023-05-19T20:32:27.237Z,76.10
2023-05-19T20:34:00.155Z,76.11
2023-05-19T20:35:34.823Z,76.15
2023-05-19T20:37:07.984Z,75.82
2023-05-19T20:38:39.776Z,77.28
2023-05-19T20:40:11.817Z,76.27
2023-05-19T20:41:44.882Z,75.73
2023-05-19T20:43:16.564Z,75.69
2023-05-19T20:44:48.219Z,75.47
2023-05-19T20:46:20.092Z,75.79
2023-05-19T20:47:52.348Z,75.43
2023-05-19T20:49:24.284Z,75.81
2023-05-19T20:50:55.912Z,76.00
2023-05-19T20:52:29.033Z,75.43
2023-05-19T20:54:01.039Z,76.67
2023-05-19T20:55:33.043Z,77.07
2023-05-19T20:57:09.043Z,77.29
2023-05-19T20:58:40.796Z,76.33
2023-05-19T21:00:13.226Z,76.11
2023-05-19T21:01:45.692Z,76.92
2023-05-19T21:04:48.848Z,75.57
2023-05-19T21:06:20.656Z,75.97
2023-05-19T21:07:53.664Z,76.23
2023-05-19T21:09:25.574Z,75.67
2023-05-19T21:10:57.354Z,76.35
2023-05-19T21:12:34.147Z,76.35
2023-05-19T21:14:07.400Z,76.40
2023-05-19T21:15:39.456Z,76.18
2023-05-19T21:17:11.359Z,76.16
2023-05-19T21:18:43.010Z,76.62
2023-05-19T21:20:14.873Z,76.39
2023-05-19T21:21:47.325Z,78.69
2023-05-19T21:23:20.365Z,76.86
2023-05-19T21:24:52.025Z,77.14
2023-05-19T21:26:23.666Z,77.40
2023-05-19T21:27:56.042Z,78.46
2023-05-19T21:29:27.774Z,77.11
2023-05-19T21:30:59.454Z,76.76